createdAt,value
2018-08-14T00:01:23.326Z,72.20
2018-08-14T00:03:51.549Z,72.30
2018-08-14T00:06:19.749Z,72.20
2018-08-14T00:08:47.983Z,72.20
2018-08-14T00:11:16.373Z,72.10
2018-08-14T00:13:44.726Z,72.60
2018-08-14T00:16:13.034Z,72.30
2018-08-14T00:18:41.306Z,72.20
2018-08-14T00:21:09.593Z,72.20
2018-08-14T00:23:37.936Z,72.30
2018-08-14T00:26:06.318Z,72.50
2018-08-14T00:28:35.194Z,72.60
2018-08-14T00:31:03.592Z,72.70
2018-08-14T00:33:31.826Z,72.60
2018-08-14T00:36:00.153Z,72.80
2018-08-14T00:38:28.494Z,72.90
2018-08-14T00:40:56.822Z,73.90
2018-08-14T00:43:25.156Z,73.40
2018-08-14T00:45:53.512Z,73.50
2018-08-14T00:48:21.800Z,73.60
2018-08-14T00:50:50.059Z,73.60
2018-08-14T00:53:18.439Z,73.60
2018-08-14T00:55:46.686Z,74.10
2018-08-14T00:58:14.927Z,74.60
2018-08-14T01:00:43.238Z,75.20
2018-08-14T01:03:12.641Z,75.70
2018-08-14T01:05:40.879Z,75.90
2018-08-14T01:08:10.434Z,76.10
2018-08-14T01:10:38.649Z,76.10
2018-08-14T01:13:07.128Z,76.00
2018-08-14T01:15:35.401Z,76.00
2018-08-14T01:18:03.644Z,76.10
2018-08-14T01:20:31.870Z,76.10
2018-08-14T01:23:00.901Z,76.00
2018-08-14T01:25:29.618Z,75.80
2018-08-14T01:27:57.898Z,75.50
2018-08-14T01:30:28.670Z,75.10
2018-08-14T01:32:56.930Z,75.10
2018-08-14T01:35:25.186Z,74.80
2018-08-14T01:37:53.440Z,74.60
2018-08-14T01:40:21.746Z,74.30
2018-08-14T01:42:49.969Z,74.30
2018-08-14T01:45:18.341Z,74.20
2018-08-14T01:47:46.642Z,74.20
2018-08-14T01:50:17.070Z,75.00
2018-08-14T01:52:45.466Z,73.90
2018-08-14T01:55:13.662Z,74.20
2018-08-14T01:57:41.963Z,73.90
2018-08-14T02:00:10.610Z,74.00
2018-08-14T02:02:38.936Z,74.00
2018-08-14T02:05:08.706Z,74.00
2018-08-14T02:07:37.280Z,74.30
2018-08-14T02:10:07.353Z,74.30
2018-08-14T02:12:35.700Z,74.40
2018-08-14T02:15:05.173Z,75.10
2018-08-14T02:17:33.522Z,74.50
2018-08-14T02:20:01.752Z,74.70
2018-08-14T02:22:30.013Z,75.20
2018-08-14T02:24:58.215Z,75.40
2018-08-14T02:27:26.540Z,76.10
2018-08-14T02:29:54.786Z,76.60
2018-08-14T02:32:23.019Z,76.90
2018-08-14T02:34:51.293Z,76.90
2018-08-14T02:37:19.526Z,77.20
2018-08-14T02:39:47.810Z,77.20
2018-08-14T02:42:16.381Z,77.20
2018-08-14T02:44:44.644Z,77.30
2018-08-14T02:47:12.894Z,77.30
2018-08-14T02:49:41.135Z,77.10
2018-08-14T02:52:09.394Z,77.00
2018-08-14T02:54:37.709Z,76.80
2018-08-14T02:57:05.950Z,76.30
2018-08-14T02:59:34.199Z,76.00
2018-08-14T03:02:02.479Z,76.20
2018-08-14T03:04:30.737Z,76.10
2018-08-14T03:06:58.970Z,75.90
2018-08-14T03:09:27.294Z,75.80
2018-08-14T03:11:55.558Z,75.50
2018-08-14T03:14:23.862Z,75.60
2018-08-14T03:16:52.036Z,75.30
2018-08-14T03:19:20.391Z,75.00
2018-08-14T03:21:48.643Z,75.00
2018-08-14T03:24:17.003Z,74.90
2018-08-14T03:26:45.265Z,75.10
2018-08-14T03:29:13.568Z,74.70
2018-08-14T03:31:41.834Z,74.60
2018-08-14T03:34:10.095Z,74.60
2018-08-14T03:36:38.442Z,75.00
2018-08-14T03:39:10.444Z,76.00
2018-08-14T03:41:39.122Z,74.90
2018-08-14T03:44:07.404Z,75.20
2018-08-14T03:46:35.666Z,75.20
2018-08-14T03:49:03.980Z,75.30
2018-08-14T03:51:32.250Z,75.30
2018-08-14T03:54:00.466Z,75.40
2018-08-14T03:56:28.829Z,75.30
2018-08-14T03:58:57.098Z,75.50
2018-08-14T04:01:25.442Z,75.60
2018-08-14T04:03:53.663Z,75.20
2018-08-14T04:06:21.986Z,75.70
2018-08-14T04:08:50.249Z,75.40
2018-08-14T04:11:18.514Z,75.40
2018-08-14T04:13:47.162Z,75.30
2018-08-14T04:16:15.754Z,75.20
2018-08-14T04:18:44.071Z,75.40
2018-08-14T04:21:12.363Z,75.70
2018-08-14T04:23:40.665Z,75.70
2018-08-14T04:26:08.925Z,75.40
2018-08-14T04:28:37.139Z,75.10
2018-08-14T04:31:05.407Z,75.20
2018-08-14T04:33:33.649Z,75.30
2018-08-14T04:36:01.911Z,75.60
2018-08-14T04:38:30.119Z,75.50
2018-08-14T04:40:58.509Z,75.20
2018-08-14T04:43:26.884Z,74.80
2018-08-14T04:45:55.310Z,74.70
2018-08-14T04:48:23.402Z,74.60
2018-08-14T04:50:51.650Z,74.80
2018-08-14T04:53:19.849Z,74.70
2018-08-14T04:55:48.163Z,74.70
2018-08-14T04:58:16.401Z,74.60
2018-08-14T05:00:44.670Z,74.30
2018-08-14T05:03:12.940Z,74.50
2018-08-14T05:05:41.267Z,74.30
2018-08-14T05:08:09.462Z,74.60
2018-08-14T05:10:37.775Z,74.30
2018-08-14T05:13:06.038Z,74.20
2018-08-14T05:15:34.402Z,73.60
2018-08-14T05:18:02.648Z,73.40
2018-08-14T05:20:30.901Z,73.60
2018-08-14T05:22:59.184Z,73.60
2018-08-14T05:25:27.786Z,73.30
2018-08-14T05:27:56.091Z,73.60
2018-08-14T05:30:24.855Z,73.60
2018-08-14T05:32:53.209Z,73.50
2018-08-14T05:35:21.542Z,73.50
2018-08-14T05:37:49.835Z,73.40
2018-08-14T05:40:18.125Z,73.30
2018-08-14T05:42:46.336Z,73.20
2018-08-14T05:45:15.593Z,73.30
2018-08-14T05:47:43.837Z,73.60
2018-08-14T05:50:14.825Z,73.70
2018-08-14T05:52:43.158Z,74.20
2018-08-14T05:55:11.380Z,75.90
2018-08-14T05:57:39.599Z,77.10
2018-08-14T06:00:10.504Z,78.30
2018-08-14T06:02:39.102Z,79.00
2018-08-14T06:05:07.478Z,79.40
2018-08-14T06:07:35.782Z,80.10
2018-08-14T06:10:05.134Z,80.70
2018-08-14T06:12:33.433Z,80.70
2018-08-14T06:15:01.718Z,81.40
2018-08-14T06:17:30.188Z,81.90
2018-08-14T06:19:58.476Z,80.80
2018-08-14T06:22:26.789Z,80.70
2018-08-14T06:24:55.055Z,80.90
2018-08-14T06:27:23.385Z,81.20
2018-08-14T06:29:51.616Z,81.40
2018-08-14T06:32:19.854Z,81.30
2018-08-14T06:34:48.141Z,80.90
2018-08-14T06:37:16.475Z,80.90
2018-08-14T06:39:44.758Z,81.30
2018-08-14T06:42:13.007Z,81.30
2018-08-14T06:44:41.290Z,81.60
2018-08-14T06:47:09.540Z,82.10
2018-08-14T06:49:37.767Z,82.30
2018-08-14T06:52:06.239Z,82.70
2018-08-14T06:54:34.567Z,82.40
2018-08-14T06:57:02.826Z,82.10
2018-08-14T06:59:31.066Z,82.80
2018-08-14T07:01:59.346Z,82.70
2018-08-14T07:04:27.598Z,82.20
2018-08-14T07:06:55.857Z,82.80
2018-08-14T07:09:24.086Z,83.30
2018-08-14T07:11:52.314Z,82.00
2018-08-14T07:14:20.855Z,82.50
2018-08-14T07:16:49.155Z,82.00
2018-08-14T07:19:17.528Z,82.30
2018-08-14T07:21:45.763Z,81.90
2018-08-14T07:24:14.007Z,81.40
2018-08-14T07:26:42.279Z,81.40
2018-08-14T07:29:10.504Z,81.10
2018-08-14T07:31:38.726Z,81.20
2018-08-14T07:34:07.305Z,81.30
2018-08-14T07:36:36.420Z,81.40
2018-08-14T07:39:07.566Z,81.00
2018-08-14T07:41:36.007Z,80.40
2018-08-14T07:44:04.481Z,79.60
2018-08-14T07:46:32.826Z,79.10
2018-08-14T07:49:02.438Z,78.90
2018-08-14T07:51:30.901Z,78.20
2018-08-14T07:53:59.401Z,78.80
2018-08-14T07:56:33.279Z,78.60
2018-08-14T07:59:02.474Z,78.30
2018-08-14T08:01:30.803Z,78.40
2018-08-14T08:03:59.349Z,78.90
2018-08-14T08:06:27.724Z,77.80
2018-08-14T08:08:56.063Z,77.40
2018-08-14T08:11:24.464Z,77.50
2018-08-14T08:13:52.751Z,77.60
2018-08-14T08:16:21.100Z,77.40
2018-08-14T08:18:49.355Z,78.50
2018-08-14T08:21:17.683Z,77.80
2018-08-14T08:23:45.931Z,78.00
2018-08-14T08:26:14.178Z,78.00
2018-08-14T08:28:42.399Z,77.70
2018-08-14T08:31:10.615Z,77.40
2018-08-14T08:33:38.843Z,77.00
2018-08-14T08:36:07.118Z,77.10
2018-08-14T08:38:35.371Z,77.00
2018-08-14T08:41:04.011Z,76.60
2018-08-14T08:43:32.236Z,76.90
2018-08-14T08:46:00.478Z,77.10
2018-08-14T08:48:28.810Z,76.90
2018-08-14T08:50:57.047Z,77.40
2018-08-14T08:53:25.274Z,76.80
2018-08-14T08:55:53.542Z,77.00
2018-08-14T08:58:21.841Z,77.50
2018-08-14T09:00:50.185Z,77.20
2018-08-14T09:03:18.491Z,75.90
2018-08-14T09:05:46.809Z,75.20
2018-08-14T09:08:15.989Z,74.20
2018-08-14T09:10:44.314Z,73.90
2018-08-14T09:13:14.267Z,73.70
2018-08-14T09:15:42.494Z,73.40
2018-08-14T09:18:10.757Z,73.50
2018-08-14T09:20:39.031Z,73.70
2018-08-14T09:23:07.376Z,73.40
2018-08-14T09:25:35.641Z,72.70
2018-08-14T09:28:03.903Z,71.70
2018-08-14T09:30:32.166Z,70.20
2018-08-14T09:33:00.500Z,69.10
2018-08-14T09:35:28.790Z,67.70
2018-08-14T09:37:57.168Z,68.00
2018-08-14T09:40:25.560Z,66.60
2018-08-14T09:42:54.735Z,66.70
2018-08-14T09:45:23.890Z,67.20
2018-08-14T09:47:52.173Z,66.50
2018-08-14T09:50:22.134Z,66.30
2018-08-14T09:52:50.551Z,66.10
2018-08-14T09:55:19.508Z,65.00
2018-08-14T09:57:49.054Z,66.60
2018-08-14T10:00:27.353Z,66.30
2018-08-14T10:03:00.916Z,67.50
2018-08-14T10:05:34.538Z,68.00
2018-08-14T10:08:10.482Z,68.00
2018-08-14T10:10:38.881Z,68.40
2018-08-14T10:13:08.283Z,67.50
2018-08-14T10:15:36.536Z,67.10
2018-08-14T10:18:05.114Z,67.20
2018-08-14T10:20:33.497Z,66.30
2018-08-14T10:23:01.730Z,66.20
2018-08-14T10:25:30.657Z,66.00
2018-08-14T10:27:59.110Z,65.70
2018-08-14T10:30:27.457Z,65.30
2018-08-14T10:32:55.670Z,64.80
2018-08-14T10:35:24.044Z,64.90
2018-08-14T10:37:52.300Z,65.10
2018-08-14T10:40:20.517Z,65.30
2018-08-14T10:42:48.815Z,65.00
2018-08-14T10:45:18.074Z,65.20
2018-08-14T10:47:46.925Z,65.00
2018-08-14T10:50:19.641Z,63.90
2018-08-14T10:52:48.480Z,63.10
2018-08-14T10:55:16.930Z,63.60
2018-08-14T10:57:45.599Z,64.20
2018-08-14T11:00:17.259Z,64.20
2018-08-14T11:02:45.588Z,63.60
2018-08-14T11:05:14.560Z,62.30
2018-08-14T11:07:44.039Z,61.00
2018-08-14T11:10:15.218Z,60.00
2018-08-14T11:12:43.877Z,59.50
2018-08-14T11:15:12.603Z,58.40
2018-08-14T11:17:41.136Z,58.70
2018-08-14T11:20:20.286Z,59.40
2018-08-14T11:22:48.953Z,59.40
2018-08-14T11:25:17.574Z,59.10
2018-08-14T11:27:45.823Z,59.30
2018-08-14T11:30:17.755Z,58.60
2018-08-14T11:32:46.296Z,57.60
2018-08-14T11:35:14.878Z,56.70
2018-08-14T11:37:43.166Z,54.40
2018-08-14T11:40:12.360Z,54.90
2018-08-14T11:42:40.879Z,55.50
2018-08-14T11:45:16.375Z,55.90
2018-08-14T11:47:45.114Z,56.10
2018-08-14T11:50:14.867Z,56.00
2018-08-14T11:52:44.662Z,55.70
2018-08-14T11:55:13.484Z,55.30
2018-08-14T11:57:41.705Z,54.90
2018-08-14T12:00:13.097Z,54.90
2018-08-14T12:02:41.977Z,55.00
2018-08-14T12:05:10.347Z,54.70
2018-08-14T12:07:39.756Z,54.70
2018-08-14T12:10:08.843Z,54.60
2018-08-14T12:12:37.108Z,54.60
2018-08-14T12:15:06.088Z,54.30
2018-08-14T12:17:34.458Z,54.30
2018-08-14T12:20:02.835Z,53.90
2018-08-14T12:22:31.081Z,53.40
2018-08-14T12:24:59.311Z,53.20
2018-08-14T12:27:27.558Z,53.70
2018-08-14T12:29:55.795Z,54.40
2018-08-14T12:32:24.098Z,54.40
2018-08-14T12:34:52.431Z,54.90
2018-08-14T12:37:20.608Z,54.60
2018-08-14T12:39:48.919Z,54.40
2018-08-14T12:42:17.288Z,54.80
2018-08-14T12:44:45.526Z,55.30
2018-08-14T12:47:13.747Z,55.40
2018-08-14T12:49:41.981Z,55.10
2018-08-14T12:52:10.209Z,53.70
2018-08-14T12:54:38.541Z,53.50
2018-08-14T12:57:06.812Z,52.40
2018-08-14T12:59:35.038Z,50.80
2018-08-14T13:02:03.295Z,51.10
2018-08-14T13:04:31.546Z,51.20
2018-08-14T13:06:59.896Z,50.10
2018-08-14T13:09:28.142Z,51.00
2018-08-14T13:11:56.388Z,51.30
2018-08-14T13:14:24.889Z,52.10
2018-08-14T13:16:53.096Z,52.40
2018-08-14T13:19:21.350Z,52.40
2018-08-14T13:21:49.593Z,52.80
2018-08-14T13:24:18.370Z,52.70
2018-08-14T13:26:47.034Z,52.30
2018-08-14T13:29:15.274Z,52.50
2018-08-14T13:31:43.530Z,52.80
2018-08-14T13:34:11.784Z,52.70
2018-08-14T13:36:40.044Z,52.40
2018-08-14T13:39:09.647Z,52.20
2018-08-14T13:41:38.266Z,52.40
2018-08-14T13:44:06.655Z,52.50
2018-08-14T13:46:34.918Z,53.00
2018-08-14T13:49:03.189Z,53.20
2018-08-14T13:51:31.542Z,53.30
2018-08-14T13:53:59.746Z,53.50
2018-08-14T13:56:27.989Z,53.80
2018-08-14T13:58:56.574Z,54.20
2018-08-14T14:01:24.918Z,53.90
2018-08-14T14:03:53.186Z,53.70
2018-08-14T14:06:21.462Z,52.80
2018-08-14T14:08:49.682Z,53.40
2018-08-14T14:11:17.899Z,54.20
2018-08-14T14:13:46.123Z,54.60
2018-08-14T14:16:14.426Z,55.00
2018-08-14T14:18:42.650Z,55.90
2018-08-14T14:21:10.972Z,57.10
2018-08-14T14:23:39.244Z,58.50
2018-08-14T14:26:07.530Z,58.00
2018-08-14T14:28:35.758Z,57.70
2018-08-14T14:31:04.023Z,57.00
2018-08-14T14:33:32.399Z,56.80
2018-08-14T14:36:00.995Z,56.80
2018-08-14T14:38:29.303Z,56.30
2018-08-14T14:40:57.728Z,55.80
2018-08-14T14:43:26.040Z,55.80
2018-08-14T14:45:54.458Z,55.80
2018-08-14T14:48:22.706Z,56.30
2018-08-14T14:50:50.910Z,57.00
2018-08-14T14:53:19.178Z,57.20
2018-08-14T14:55:47.490Z,57.10
2018-08-14T14:58:15.762Z,57.10
2018-08-14T15:00:44.036Z,57.20
2018-08-14T15:03:12.394Z,56.90
2018-08-14T15:05:40.700Z,56.30
2018-08-14T15:08:09.014Z,56.60
2018-08-14T15:10:37.286Z,55.90
2018-08-14T15:13:05.644Z,56.20
2018-08-14T15:15:34.595Z,55.90
2018-08-14T15:18:02.981Z,55.70
2018-08-14T15:20:31.251Z,55.60
2018-08-14T15:22:59.856Z,55.60
2018-08-14T15:25:28.767Z,55.80
2018-08-14T15:29:08.795Z,55.90
2018-08-14T15:31:39.031Z,56.50
2018-08-14T15:34:09.351Z,56.80
2018-08-14T15:36:37.601Z,56.60
2018-08-14T15:39:10.107Z,57.20
2018-08-14T15:41:38.688Z,57.60
2018-08-14T15:44:07.185Z,57.90
2018-08-14T15:46:35.437Z,58.50
2018-08-14T15:49:03.753Z,58.80
2018-08-14T15:51:32.120Z,58.80
2018-08-14T15:54:00.357Z,58.70
2018-08-14T15:56:28.596Z,58.90
2018-08-14T15:58:56.831Z,59.20
2018-08-14T16:01:25.042Z,59.60
2018-08-14T16:03:53.325Z,60.00
2018-08-14T16:06:21.543Z,60.50
2018-08-14T16:08:49.795Z,60.60
2018-08-14T16:11:18.042Z,60.70
2018-08-14T16:13:46.393Z,61.60
2018-08-14T16:16:14.619Z,63.70
2018-08-14T16:18:43.014Z,70.30
2018-08-14T16:21:11.368Z,73.90
2018-08-14T16:23:39.630Z,76.80
2018-08-14T16:26:07.906Z,78.50
2018-08-14T16:28:36.142Z,79.90
2018-08-14T16:31:04.392Z,80.40
2018-08-14T16:33:32.877Z,80.90
2018-08-14T16:36:01.106Z,81.80
2018-08-14T16:38:29.366Z,82.00
2018-08-14T16:40:57.778Z,81.90
2018-08-14T16:43:26.042Z,82.10
2018-08-14T16:45:54.315Z,81.70
2018-08-14T16:48:22.545Z,81.90
2018-08-14T16:50:50.756Z,81.60
2018-08-14T16:53:19.005Z,81.00
2018-08-14T16:55:47.267Z,81.10
2018-08-14T16:58:15.514Z,80.60
2018-08-14T17:00:43.836Z,79.70
2018-08-14T17:03:12.565Z,79.80
2018-08-14T17:05:41.518Z,79.80
2018-08-14T17:08:09.828Z,79.70
2018-08-14T17:10:38.025Z,79.70
2018-08-14T17:13:06.418Z,79.40
2018-08-14T17:15:34.662Z,79.40
2018-08-14T17:18:02.938Z,79.50
2018-08-14T17:20:30.189Z,79.60
2018-08-14T17:22:58.403Z,79.70
2018-08-14T17:25:26.686Z,80.10
2018-08-14T17:27:57.459Z,79.40
2018-08-14T17:30:27.337Z,79.50
2018-08-14T17:32:56.112Z,78.60
2018-08-14T17:35:24.497Z,78.20
2018-08-14T17:37:54.768Z,78.20
2018-08-14T17:40:24.094Z,77.50
2018-08-14T17:42:52.390Z,77.40
2018-08-14T17:45:23.717Z,77.30
2018-08-14T17:47:53.347Z,76.50
2018-08-14T17:50:22.264Z,77.30
2018-08-14T17:52:50.733Z,76.90
2018-08-14T17:55:19.585Z,76.80
2018-08-14T17:57:47.853Z,76.30
2018-08-14T18:00:19.638Z,76.40
2018-08-14T18:02:52.561Z,75.90
2018-08-14T18:05:20.801Z,75.90
2018-08-14T18:07:49.178Z,76.10
2018-08-14T18:10:18.643Z,76.00
2018-08-14T18:12:47.019Z,76.30
2018-08-14T18:15:16.040Z,76.20
2018-08-14T18:17:44.266Z,76.20
2018-08-14T18:20:14.899Z,76.20
2018-08-14T18:22:43.202Z,76.10
2018-08-14T18:25:13.370Z,76.10
2018-08-14T18:27:41.936Z,76.40
2018-08-14T18:30:11.546Z,76.50
2018-08-14T18:32:39.766Z,76.50
2018-08-14T18:35:08.394Z,76.40
2018-08-14T18:37:36.618Z,76.70
2018-08-14T18:40:09.579Z,76.80
2018-08-14T18:42:37.938Z,76.70
2018-08-14T18:45:07.883Z,76.80
2018-08-14T18:47:36.191Z,76.60
2018-08-14T18:50:05.343Z,76.30
2018-08-14T18:52:33.688Z,76.30
2018-08-14T18:55:01.915Z,76.00
2018-08-14T18:57:30.173Z,76.00
2018-08-14T18:59:58.554Z,76.00
2018-08-14T19:02:26.762Z,76.10
2018-08-14T19:04:55.032Z,76.20
2018-08-14T19:07:23.287Z,76.00
2018-08-14T19:09:51.542Z,76.10
2018-08-14T19:12:19.771Z,76.10
2018-08-14T19:14:48.011Z,76.20
2018-08-14T19:17:22.846Z,76.10
2018-08-14T19:19:51.128Z,75.90
2018-08-14T19:22:19.395Z,76.00
2018-08-14T19:24:47.638Z,76.10
2018-08-14T19:27:15.836Z,76.50
2018-08-14T19:29:44.042Z,76.80
2018-08-14T19:32:12.294Z,77.00
2018-08-14T19:34:40.522Z,77.20
2018-08-14T19:37:08.790Z,77.70
2018-08-14T19:39:37.166Z,77.80
2018-08-14T19:42:05.423Z,77.80
2018-08-14T19:44:33.663Z,77.60
2018-08-14T19:47:02.017Z,77.50
2018-08-14T19:49:30.237Z,77.50
2018-08-14T19:51:58.566Z,77.50
2018-08-14T19:54:26.816Z,77.20
2018-08-14T19:56:55.003Z,77.20
2018-08-14T19:59:23.233Z,77.10
2018-08-14T20:01:51.496Z,77.50
2018-08-14T20:04:19.785Z,77.60
2018-08-14T20:06:48.020Z,77.70
2018-08-14T20:09:16.326Z,77.90
2018-08-14T20:11:44.630Z,78.00
2018-08-14T20:14:12.918Z,77.90
2018-08-14T20:16:41.774Z,78.00
2018-08-14T20:19:10.286Z,77.90
2018-08-14T20:21:39.170Z,77.90
2018-08-14T20:24:07.580Z,78.20
2018-08-14T20:26:35.851Z,78.30
2018-08-14T20:29:04.243Z,78.60
2018-08-14T20:31:32.509Z,78.00
2018-08-14T20:34:00.759Z,77.70
2018-08-14T20:36:29.021Z,77.60
2018-08-14T20:38:57.303Z,77.20
2018-08-14T20:41:25.629Z,77.10
2018-08-14T20:43:53.871Z,76.90
2018-08-14T20:46:22.127Z,77.10
2018-08-14T20:48:51.247Z,77.10
2018-08-14T20:51:19.527Z,77.00
2018-08-14T20:53:47.871Z,76.70
2018-08-14T20:56:16.147Z,76.90
2018-08-14T20:58:44.358Z,76.90
2018-08-14T21:01:12.623Z,76.90
2018-08-14T21:03:40.866Z,76.90
2018-08-14T21:06:09.144Z,76.80
2018-08-14T21:08:37.526Z,76.60
2018-08-14T21:11:05.782Z,76.50
2018-08-14T21:13:34.007Z,76.30
2018-08-14T21:16:07.724Z,76.20
2018-08-14T21:18:36.009Z,76.30
2018-08-14T21:21:04.230Z,76.30
2018-08-14T21:23:32.516Z,76.00
2018-08-14T21:26:00.791Z,75.90
2018-08-14T21:28:29.067Z,76.20
2018-08-14T21:30:57.431Z,76.30
2018-08-14T21:33:25.665Z,76.60
2018-08-14T21:35:53.885Z,76.90
2018-08-14T21:38:22.222Z,77.40
2018-08-14T21:40:50.466Z,77.90
2018-08-14T21:43:18.666Z,78.00
2018-08-14T21:45:46.946Z,78.10
2018-08-14T21:48:15.201Z,78.00
2018-08-14T21:50:43.508Z,77.50
2018-08-14T21:53:11.803Z,76.10
2018-08-14T21:55:40.040Z,74.70
2018-08-14T21:58:08.300Z,74.30
2018-08-14T22:01:05.660Z,73.60
2018-08-14T22:03:34.720Z,72.80
2018-08-14T22:06:03.002Z,72.10
2018-08-14T22:08:31.522Z,71.40
2018-08-14T22:10:59.794Z,71.20
2018-08-14T22:13:28.069Z,70.60
2018-08-14T22:15:56.356Z,70.40
2018-08-14T22:18:24.625Z,69.30
2018-08-14T22:20:53.401Z,69.20
2018-08-14T22:23:21.645Z,69.10
2018-08-14T22:25:49.943Z,69.70
2018-08-14T22:28:18.202Z,68.60
2018-08-14T22:30:46.475Z,68.60
2018-08-14T22:33:14.763Z,68.50
2018-08-14T22:35:43.099Z,68.40
2018-08-14T22:38:11.376Z,68.40
2018-08-14T22:40:39.684Z,68.40
2018-08-14T22:43:07.931Z,67.80
2018-08-14T22:45:36.298Z,67.70
2018-08-14T22:48:04.709Z,67.00
2018-08-14T22:50:33.027Z,67.10
2018-08-14T22:53:01.335Z,66.50
2018-08-14T22:55:29.583Z,66.90
2018-08-14T22:57:58.429Z,66.60
2018-08-14T23:00:26.670Z,66.30
2018-08-14T23:02:54.925Z,66.20
2018-08-14T23:05:23.240Z,66.30
2018-08-14T23:07:51.491Z,66.30
2018-08-14T23:10:19.753Z,66.80
2018-08-14T23:12:47.953Z,67.80
2018-08-14T23:15:16.213Z,68.00
2018-08-14T23:17:44.510Z,68.50
2018-08-14T23:20:13.784Z,68.30
2018-08-14T23:22:42.104Z,68.40
2018-08-14T23:25:11.390Z,68.80
2018-08-14T23:27:39.765Z,69.20
2018-08-14T23:30:10.197Z,69.30
2018-08-14T23:32:38.444Z,69.50
2018-08-14T23:35:06.955Z,68.50
2018-08-14T23:37:35.320Z,68.20
2018-08-14T23:40:04.029Z,68.30
2018-08-14T23:42:32.300Z,69.00
2018-08-14T23:45:00.542Z,68.30
2018-08-14T23:47:28.738Z,68.70
2018-08-14T23:49:56.932Z,69.20
2018-08-14T23:52:25.186Z,69.70
2018-08-14T23:54:53.398Z,69.90
2018-08-14T23:57:21.641Z,70.10
2018-08-14T23:59:49.950Z,70.20
